Time;durP1;ratioP1;P1;durP2;ratioP2;P2;SDS_P1;SDS_P2;PMS_P1;PMS_P2;Temp;Humidity;BMP_temperature;BMP_pressure;BME280_temperature;BME280_humidity;BME280_pressure;Samples;Min_cycle;Max_cycle;Signal;HPM_P1;HPM_P2
2021/12/30 00:01:21;;;;;;;0.90;0.90;;;21.30;52.20;;;;;;4959625;28;20268;-71
2021/12/30 00:03:49;;;;;;;0.70;0.70;;;21.30;52.10;;;;;;4976411;28;20276;-71
2021/12/30 00:06:18;;;;;;;0.80;0.80;;;21.30;52.20;;;;;;4958929;28;20185;-71
2021/12/30 00:08:45;;;;;;;0.77;0.73;;;21.30;52.20;;;;;;4959089;28;20182;-70
2021/12/30 00:11:11;;;;;;;1.08;0.95;;;21.30;52.20;;;;;;4975198;28;20218;-71
2021/12/30 00:13:39;;;;;;;0.80;0.80;;;21.40;52.30;;;;;;4991386;28;20570;-70
2021/12/30 00:16:06;;;;;;;0.77;0.77;;;21.40;52.30;;;;;;4959070;28;20218;-71
2021/12/30 00:18:32;;;;;;;0.73;0.73;;;21.40;52.30;;;;;;4991186;28;20186;-71
2021/12/30 00:20:57;;;;;;;0.88;0.88;;;21.30;52.30;;;;;;4991102;28;20216;-71
2021/12/30 00:23:23;;;;;;;0.70;0.70;;;21.30;52.30;;;;;;4991093;28;20198;-71
2021/12/30 00:25:49;;;;;;;0.98;0.85;;;21.30;52.30;;;;;;4975788;28;20198;-71
2021/12/30 00:28:21;;;;;;;0.70;0.70;;;21.40;52.40;;;;;;4991329;28;20342;-70
2021/12/30 00:30:48;;;;;;;0.80;0.80;;;21.30;52.30;;;;;;4958522;28;20220;-71
2021/12/30 00:33:15;;;;;;;0.80;0.73;;;21.40;52.40;;;;;;4966534;28;20253;-71
2021/12/30 00:35:41;;;;;;;1.15;0.85;;;21.30;52.30;;;;;;4974471;28;20181;-70
2021/12/30 00:38:09;;;;;;;1.50;0.95;;;21.30;52.30;;;;;;4974591;28;20186;-71
2021/12/30 00:40:37;;;;;;;1.40;0.95;;;21.40;52.40;;;;;;4974522;28;20206;-71
2021/12/30 00:43:05;;;;;;;0.70;0.70;;;21.40;52.40;;;;;;4974853;28;20190;-70
2021/12/30 00:45:34;;;;;;;0.73;0.68;;;21.30;52.40;;;;;;4974008;28;20640;-71
2021/12/30 00:48:02;;;;;;;0.90;0.90;;;21.30;52.30;;;;;;4974410;28;20192;-70
2021/12/30 00:50:30;;;;;;;0.80;0.80;;;21.40;52.40;;;;;;4974464;28;20304;-71
2021/12/30 00:52:58;;;;;;;0.60;0.60;;;21.30;52.40;;;;;;4975529;28;20268;-71
2021/12/30 00:55:26;;;;;;;0.80;0.80;;;21.40;52.40;;;;;;4975357;28;20190;-71
2021/12/30 00:57:52;;;;;;;1.10;1.00;;;21.30;52.30;;;;;;4974454;28;20190;-71
2021/12/30 01:00:20;;;;;;;0.70;0.70;;;21.40;52.40;;;;;;4974196;28;20212;-71
2021/12/30 01:02:47;;;;;;;0.80;0.80;;;21.40;53.00;;;;;;4957468;28;20181;-70
2021/12/30 01:05:14;;;;;;;1.33;0.80;;;21.30;52.30;;;;;;4973981;28;20189;-71
2021/12/30 01:07:40;;;;;;;0.70;0.70;;;21.30;52.30;;;;;;4974105;28;20333;-71
2021/12/30 01:10:10;;;;;;;1.17;0.68;;;21.30;52.30;;;;;;4973799;28;20320;-70
2021/12/30 01:12:37;;;;;;;0.80;0.80;;;21.30;52.30;;;;;;4976315;28;20190;-73
2021/12/30 01:15:09;;;;;;;0.60;0.60;;;21.30;52.30;;;;;;4979243;28;20664;-71
2021/12/30 01:20:28;;;;;;;0.60;0.60;;;21.30;52.40;;;;;;4958842;28;20729;-71
2021/12/30 01:22:54;;;;;;;0.60;0.60;;;21.40;52.40;;;;;;4974179;28;20260;-71
2021/12/30 01:25:20;;;;;;;0.70;0.70;;;21.30;52.30;;;;;;4957420;28;20676;-70
2021/12/30 01:27:47;;;;;;;0.60;0.60;;;21.30;52.30;;;;;;4973831;28;20217;-71
2021/12/30 01:30:17;;;;;;;0.77;0.77;;;21.40;52.40;;;;;;4974814;28;20214;-71
2021/12/30 01:32:43;;;;;;;0.65;0.60;;;21.40;52.40;;;;;;4976676;28;20282;-71
2021/12/30 01:35:15;;;;;;;1.13;0.70;;;21.40;52.40;;;;;;4958382;28;20621;-71
2021/12/30 01:37:41;;;;;;;0.50;0.50;;;21.40;52.40;;;;;;4974989;28;20256;-71
2021/12/30 01:40:12;;;;;;;0.60;0.60;;;21.40;52.40;;;;;;4973439;28;20205;-71
2021/12/30 01:42:39;;;;;;;0.68;0.68;;;21.30;52.30;;;;;;4957374;28;20189;-71
2021/12/30 01:45:07;;;;;;;0.75;0.75;;;21.30;52.30;;;;;;4974305;28;20192;-71
2021/12/30 01:47:33;;;;;;;0.68;0.68;;;21.30;52.30;;;;;;4974450;28;20192;-70
2021/12/30 01:49:59;;;;;;;0.68;0.50;;;21.30;52.30;;;;;;4957019;28;20209;-70
2021/12/30 01:52:25;;;;;;;1.75;0.70;;;21.30;52.30;;;;;;4973581;28;20193;-71
2021/12/30 01:54:51;;;;;;;0.70;0.70;;;21.30;52.30;;;;;;4948778;28;20188;-71
2021/12/30 01:57:17;;;;;;;0.77;0.65;;;21.30;52.30;;;;;;4974445;28;20216;-70
2021/12/30 01:59:42;;;;;;;0.60;0.60;;;21.30;52.30;;;;;;4989294;28;20280;-71
2021/12/30 02:02:08;;;;;;;0.63;0.60;;;21.30;52.30;;;;;;4982051;28;20237;-71
2021/12/30 02:04:34;;;;;;;0.73;0.70;;;21.30;52.30;;;;;;4973643;28;20190;-71
2021/12/30 02:07:00;;;;;;;0.75;0.75;;;21.30;52.40;;;;;;4989333;28;20196;-71
2021/12/30 02:09:29;;;;;;;0.80;0.70;;;21.30;52.30;;;;;;4989309;28;20527;-70
2021/12/30 02:11:55;;;;;;;0.88;0.70;;;21.30;52.40;;;;;;4972905;28;20305;-70
2021/12/30 02:14:21;;;;;;;0.60;0.60;;;21.30;52.30;;;;;;4972321;28;20181;-70
2021/12/30 02:16:47;;;;;;;0.60;0.60;;;21.30;52.40;;;;;;4973396;28;20536;-71
2021/12/30 02:19:15;;;;;;;0.93;0.80;;;21.30;52.40;;;;;;4972928;28;20549;-71
2021/12/30 02:21:40;;;;;;;0.70;0.60;;;21.30;52.40;;;;;;4973017;28;20206;-71
2021/12/30 02:24:06;;;;;;;0.55;0.55;;;21.30;52.30;;;;;;4973201;28;20192;-70
2021/12/30 02:26:33;;;;;;;0.95;0.85;;;21.30;52.30;;;;;;4972904;28;20214;-71
2021/12/30 02:28:59;;;;;;;0.60;0.60;;;21.30;52.30;;;;;;4972594;28;20186;-71
2021/12/30 02:31:29;;;;;;;0.70;0.60;;;21.30;52.30;;;;;;4987948;28;20261;-70
2021/12/30 02:33:58;;;;;;;0.82;0.80;;;21.30;52.30;;;;;;4980381;28;20213;-70
2021/12/30 02:36:36;;;;;;;0.77;0.70;;;21.30;52.30;;;;;;4956224;28;20241;-70
2021/12/30 02:39:07;;;;;;;0.90;0.70;;;21.30;52.90;;;;;;4972799;28;20178;-71
2021/12/30 02:41:35;;;;;;;0.50;0.50;;;21.30;52.90;;;;;;4973637;28;20240;-71
2021/12/30 02:44:05;;;;;;;1.60;0.60;;;21.30;52.30;;;;;;4972357;28;20223;-71
2021/12/30 02:46:32;;;;;;;0.70;0.70;;;21.30;52.30;;;;;;4972095;28;20185;-71
2021/12/30 02:48:59;;;;;;;0.80;0.80;;;21.30;52.30;;;;;;4972385;28;20198;-71
2021/12/30 02:51:26;;;;;;;0.57;0.57;;;21.30;52.30;;;;;;4973479;28;20684;-71
2021/12/30 02:53:54;;;;;;;0.60;0.60;;;21.30;52.30;;;;;;4973265;28;20185;-70
2021/12/30 02:56:23;;;;;;;0.60;0.60;;;21.30;52.30;;;;;;4940538;28;20224;-70
2021/12/30 02:58:49;;;;;;;0.57;0.57;;;21.30;52.40;;;;;;4988500;28;20217;-71
2021/12/30 03:01:35;;;;;;;0.63;0.60;;;21.30;52.30;;;;;;4988439;28;20217;-70
2021/12/30 03:04:03;;;;;;;0.50;0.50;;;21.30;52.40;;;;;;4972135;28;20197;-71
2021/12/30 03:06:29;;;;;;;0.88;0.60;;;21.30;52.30;;;;;;4972326;28;20200;-71
2021/12/30 03:08:56;;;;;;;0.57;0.50;;;21.30;52.30;;;;;;4972191;28;20190;-71
2021/12/30 03:11:25;;;;;;;0.60;0.60;;;21.30;52.30;;;;;;4971644;28;20225;-71
2021/12/30 03:13:53;;;;;;;0.40;0.40;;;21.30;52.30;;;;;;4972090;28;20182;-70
2021/12/30 03:16:34;;;;;;;0.60;0.50;;;21.30;52.40;;;;;;4980076;28;20645;-71
2021/12/30 03:19:00;;;;;;;1.05;0.75;;;21.30;52.40;;;;;;4971147;28;20190;-70
2021/12/30 03:21:27;;;;;;;0.57;0.57;;;21.30;52.30;;;;;;4939820;28;20218;-71
2021/12/30 03:23:58;;;;;;;0.40;0.40;;;21.30;52.30;;;;;;4976538;28;20189;-71
2021/12/30 03:26:24;;;;;;;0.55;0.55;;;21.30;52.30;;;;;;4956064;28;20206;-71
2021/12/30 03:28:51;;;;;;;0.50;0.50;;;21.30;52.40;;;;;;4940673;29;20188;-71
2021/12/30 03:31:20;;;;;;;0.60;0.50;;;21.30;52.30;;;;;;4940537;29;20218;-71
2021/12/30 03:33:47;;;;;;;0.73;0.52;;;21.30;52.40;;;;;;4977765;28;20190;-71
2021/12/30 03:36:15;;;;;;;0.60;0.60;;;21.30;52.40;;;;;;4990670;28;20189;-71
2021/12/30 03:38:45;;;;;;;0.60;0.60;;;21.30;52.30;;;;;;4992286;28;20186;-71
2021/12/30 03:41:17;;;;;;;0.60;0.60;;;21.30;52.30;;;;;;4976762;28;20209;-71
2021/12/30 03:43:43;;;;;;;0.65;0.60;;;21.30;52.30;;;;;;4975786;28;20216;-71
2021/12/30 03:46:10;;;;;;;0.65;0.50;;;21.30;52.30;;;;;;4975313;28;20197;-71
2021/12/30 03:48:42;;;;;;;0.70;0.60;;;21.30;52.40;;;;;;4991699;28;20198;-71
2021/12/30 03:51:19;;;;;;;0.60;0.60;;;21.30;52.40;;;;;;4991748;28;20301;-71
2021/12/30 03:53:49;;;;;;;0.60;0.55;;;21.30;52.30;;;;;;4991737;28;20193;-71
2021/12/30 03:56:19;;;;;;;0.55;0.50;;;21.30;52.30;;;;;;4991318;28;20570;-71
2021/12/30 03:58:47;;;;;;;0.60;0.60;;;21.30;52.30;;;;;;4991734;28;20187;-70
2021/12/30 04:01:18;;;;;;;0.60;0.50;;;21.30;52.30;;;;;;4991363;28;20697;-71
2021/12/30 04:03:45;;;;;;;0.68;0.50;;;21.30;52.30;;;;;;4969639;28;20193;-71
2021/12/30 04:06:12;;;;;;;0.50;0.50;;;21.30;52.30;;;;;;4973695;28;20216;-70
2021/12/30 04:08:38;;;;;;;0.50;0.50;;;21.30;52.30;;;;;;4958918;28;20313;-71
2021/12/30 04:11:04;;;;;;;0.60;0.60;;;21.30;52.40;;;;;;4991188;28;20296;-71
2021/12/30 04:13:31;;;;;;;0.85;0.70;;;21.30;52.30;;;;;;4975283;28;20201;-71
2021/12/30 04:15:57;;;;;;;0.50;0.50;;;21.30;52.30;;;;;;4958999;28;20194;-71
2021/12/30 04:18:23;;;;;;;0.40;0.40;;;21.30;52.30;;;;;;4991269;28;20182;-71
2021/12/30 04:20:49;;;;;;;0.40;0.40;;;21.30;52.40;;;;;;4976097;28;20205;-70
2021/12/30 04:23:15;;;;;;;0.70;0.60;;;21.20;52.20;;;;;;4991459;28;20189;-71
2021/12/30 04:25:41;;;;;;;0.60;0.60;;;21.30;52.30;;;;;;4991271;28;20241;-70
2021/12/30 04:28:08;;;;;;;0.50;0.50;;;21.20;52.20;;;;;;4958942;28;20186;-70
2021/12/30 04:30:33;;;;;;;0.50;0.50;;;21.30;52.30;;;;;;4976047;28;20289;-70
2021/12/30 04:32:59;;;;;;;0.50;0.50;;;21.30;52.30;;;;;;4988547;28;20260;-71
2021/12/30 04:35:25;;;;;;;0.68;0.68;;;21.30;52.30;;;;;;4974442;28;20192;-71
2021/12/30 04:37:51;;;;;;;0.50;0.50;;;21.30;52.30;;;;;;4990209;28;20181;-71
2021/12/30 04:40:17;;;;;;;0.50;0.50;;;21.30;52.30;;;;;;4991109;28;20209;-70
2021/12/30 04:42:43;;;;;;;0.60;0.60;;;21.20;52.20;;;;;;4990993;28;20200;-71
2021/12/30 04:45:12;;;;;;;0.50;0.50;;;21.30;52.30;;;;;;4990749;28;20190;-71
2021/12/30 04:47:40;;;;;;;0.45;0.45;;;21.30;52.30;;;;;;4991080;28;20197;-71
2021/12/30 04:50:09;;;;;;;0.50;0.50;;;21.30;52.40;;;;;;4990526;28;20589;-70
2021/12/30 04:52:35;;;;;;;0.50;0.50;;;21.30;52.30;;;;;;4974420;28;20225;-71
2021/12/30 04:55:01;;;;;;;0.55;0.50;;;21.30;52.30;;;;;;4974241;28;20221;-70
2021/12/30 04:57:27;;;;;;;0.40;0.40;;;21.20;52.20;;;;;;4975806;28;20185;-71
2021/12/30 04:59:53;;;;;;;0.73;0.40;;;21.30;52.40;;;;;;4990614;28;20210;-72
2021/12/30 05:02:19;;;;;;;0.50;0.50;;;21.20;52.20;;;;;;4974377;28;20196;-71
2021/12/30 05:04:45;;;;;;;0.55;0.55;;;21.20;52.20;;;;;;4966069;28;20248;-70
2021/12/30 05:07:10;;;;;;;0.40;0.40;;;21.20;52.20;;;;;;4974381;28;20259;-71
2021/12/30 05:09:36;;;;;;;0.40;0.40;;;21.30;52.90;;;;;;4974369;28;20213;-71
2021/12/30 05:12:03;;;;;;;0.47;0.47;;;21.30;52.40;;;;;;4973791;28;20217;-70
2021/12/30 05:14:28;;;;;;;0.30;0.30;;;21.30;52.40;;;;;;4987586;28;20244;-71
2021/12/30 05:16:56;;;;;;;0.50;0.50;;;21.30;52.40;;;;;;4973619;28;20220;-71
2021/12/30 05:19:21;;;;;;;1.15;0.50;;;21.20;52.20;;;;;;4957796;28;20217;-70
2021/12/30 05:21:47;;;;;;;0.55;0.55;;;21.20;52.30;;;;;;4957977;28;20221;-71
2021/12/30 05:24:15;;;;;;;0.40;0.40;;;21.30;52.50;;;;;;4973521;28;20260;-70
2021/12/30 05:26:41;;;;;;;0.30;0.30;;;21.20;52.30;;;;;;4973726;28;20228;-71
2021/12/30 05:29:06;;;;;;;0.50;0.50;;;21.30;52.40;;;;;;4973461;28;20225;-71
2021/12/30 05:31:32;;;;;;;0.50;0.50;;;21.20;52.60;;;;;;4966893;28;20269;-70
2021/12/30 05:33:58;;;;;;;0.40;0.40;;;21.20;52.30;;;;;;4984696;28;20184;-71
2021/12/30 05:36:24;;;;;;;0.38;0.38;;;21.20;52.90;;;;;;4957603;28;20236;-71
2021/12/30 05:38:50;;;;;;;0.60;0.60;;;21.20;52.50;;;;;;4973507;28;20190;-70
2021/12/30 05:41:16;;;;;;;0.60;0.60;;;21.30;52.50;;;;;;4973524;28;20321;-70
2021/12/30 05:43:42;;;;;;;0.50;0.50;;;21.20;52.40;;;;;;4957174;28;20189;-71
2021/12/30 05:46:08;;;;;;;0.88;0.50;;;21.30;52.40;;;;;;4973073;28;20220;-71
2021/12/30 05:48:33;;;;;;;0.40;0.40;;;21.20;52.50;;;;;;4973391;28;20189;-71
2021/12/30 05:51:01;;;;;;;0.47;0.47;;;21.30;52.50;;;;;;4973197;28;20272;-71
2021/12/30 05:53:29;;;;;;;0.57;0.40;;;21.20;52.50;;;;;;4973170;28;20273;-71
2021/12/30 05:55:55;;;;;;;0.82;0.55;;;21.30;52.40;;;;;;4957229;28;20186;-71
2021/12/30 05:58:21;;;;;;;0.43;0.43;;;21.20;52.40;;;;;;4973221;28;20205;-70
2021/12/30 06:00:49;;;;;;;1.15;0.57;;;21.20;52.50;;;;;;4969652;28;20217;-70
2021/12/30 06:03:18;;;;;;;0.32;0.32;;;21.20;52.40;;;;;;4955614;28;20285;-71
2021/12/30 06:05:49;;;;;;;0.30;0.30;;;21.30;52.50;;;;;;4989268;28;20669;-71
2021/12/30 06:08:15;;;;;;;0.50;0.50;;;21.20;52.40;;;;;;4989523;28;20174;-71
2021/12/30 06:10:43;;;;;;;0.45;0.45;;;21.20;52.50;;;;;;4956965;28;20316;-71
2021/12/30 06:13:10;;;;;;;0.47;0.47;;;21.20;52.50;;;;;;4989198;28;20173;-70
2021/12/30 06:15:36;;;;;;;0.40;0.40;;;21.30;52.50;;;;;;4972964;28;20196;-71
2021/12/30 06:18:02;;;;;;;0.40;0.40;;;21.20;52.50;;;;;;4973374;28;20193;-70
2021/12/30 06:20:29;;;;;;;0.57;0.40;;;21.20;52.50;;;;;;4973291;28;20312;-71
2021/12/30 06:22:55;;;;;;;0.35;0.35;;;21.20;52.50;;;;;;4972907;28;20189;-71
2021/12/30 06:25:21;;;;;;;0.50;0.50;;;21.30;52.60;;;;;;4988898;28;20194;-71
2021/12/30 06:27:47;;;;;;;0.50;0.50;;;21.20;52.60;;;;;;4973124;28;20190;-70
2021/12/30 06:30:13;;;;;;;0.40;0.40;;;21.20;52.60;;;;;;4973514;28;20213;-71
2021/12/30 06:32:39;;;;;;;0.65;0.50;;;21.30;52.60;;;;;;4964495;28;20581;-71
2021/12/30 06:35:08;;;;;;;0.43;0.43;;;21.20;52.60;;;;;;4978937;28;20215;-71
2021/12/30 06:37:36;;;;;;;0.50;0.50;;;21.20;52.60;;;;;;4972586;28;20178;-72
2021/12/30 06:40:04;;;;;;;0.52;0.52;;;21.20;52.60;;;;;;4956419;28;20209;-72
2021/12/30 06:42:30;;;;;;;0.40;0.40;;;21.20;52.60;;;;;;4972830;28;20189;-72
2021/12/30 06:44:56;;;;;;;0.40;0.40;;;21.20;52.60;;;;;;4973048;28;20196;-72
2021/12/30 06:47:23;;;;;;;0.75;0.40;;;21.20;52.60;;;;;;4972323;28;20185;-72
2021/12/30 06:49:49;;;;;;;0.40;0.40;;;21.20;52.60;;;;;;4972417;28;20280;-72
2021/12/30 06:52:15;;;;;;;0.30;0.30;;;21.20;52.60;;;;;;4973626;28;20252;-71
2021/12/30 06:54:41;;;;;;;0.30;0.30;;;21.20;52.60;;;;;;4963603;28;20181;-72
2021/12/30 06:57:10;;;;;;;0.50;0.50;;;21.20;52.60;;;;;;4956417;28;20185;-72
2021/12/30 06:59:36;;;;;;;0.40;0.40;;;21.20;52.60;;;;;;4988529;28;20212;-72
2021/12/30 07:02:05;;;;;;;0.52;0.50;;;21.20;52.60;;;;;;4969685;28;20189;-72
2021/12/30 07:04:31;;;;;;;0.50;0.50;;;21.20;52.60;;;;;;4976124;28;20202;-71
2021/12/30 07:06:56;;;;;;;0.40;0.40;;;21.20;52.70;;;;;;4977609;28;20185;-72
2021/12/30 07:09:22;;;;;;;0.55;0.52;;;21.20;52.60;;;;;;4944483;28;20528;-72
2021/12/30 07:11:49;;;;;;;0.40;0.40;;;21.20;52.70;;;;;;4944016;28;20220;-71
2021/12/30 07:14:20;;;;;;;0.43;0.40;;;21.30;52.80;;;;;;4944107;28;20184;-73
2021/12/30 07:16:47;;;;;;;0.50;0.50;;;21.20;52.70;;;;;;4977247;28;20188;-72
2021/12/30 07:19:14;;;;;;;0.43;0.43;;;21.20;52.70;;;;;;4944151;28;20178;-72
2021/12/30 07:21:40;;;;;;;0.40;0.40;;;21.20;52.80;;;;;;4975928;28;20276;-72
2021/12/30 07:24:07;;;;;;;0.40;0.40;;;21.20;52.70;;;;;;4960232;28;20193;-72
2021/12/30 07:26:33;;;;;;;0.50;0.50;;;21.20;52.70;;;;;;4945287;28;20228;-72
2021/12/30 07:28:59;;;;;;;0.40;0.40;;;21.20;52.80;;;;;;4978047;28;20193;-72
2021/12/30 07:31:26;;;;;;;0.40;0.40;;;21.20;52.80;;;;;;4960141;28;20218;-72
2021/12/30 07:33:52;;;;;;;0.45;0.45;;;21.20;52.80;;;;;;4947301;28;20212;-72
2021/12/30 07:36:18;;;;;;;0.35;0.35;;;21.20;52.80;;;;;;4975459;28;20269;-72
2021/12/30 07:38:44;;;;;;;0.50;0.50;;;21.20;52.80;;;;;;4976343;28;20181;-72
2021/12/30 07:41:09;;;;;;;0.40;0.40;;;21.20;52.80;;;;;;4975982;28;20300;-72
2021/12/30 07:43:35;;;;;;;0.45;0.45;;;21.20;52.80;;;;;;4975798;28;20193;-71
2021/12/30 07:46:02;;;;;;;0.50;0.50;;;21.20;52.80;;;;;;4975671;28;20177;-72
2021/12/30 07:48:28;;;;;;;0.40;0.40;;;21.20;52.80;;;;;;4975936;28;20196;-72
2021/12/30 07:50:54;;;;;;;0.40;0.40;;;21.20;52.80;;;;;;4974199;28;20221;-72
2021/12/30 07:53:20;;;;;;;0.40;0.40;;;21.20;52.80;;;;;;4975339;28;20181;-72
2021/12/30 07:55:46;;;;;;;0.57;0.57;;;21.20;52.80;;;;;;4954843;28;20186;-72
2021/12/30 07:58:12;;;;;;;0.40;0.40;;;21.20;52.80;;;;;;4990621;28;20196;-72
2021/12/30 08:00:38;;;;;;;0.40;0.40;;;21.20;52.90;;;;;;4991332;28;20300;-72
2021/12/30 08:03:04;;;;;;;0.50;0.50;;;21.20;52.80;;;;;;4991850;28;20190;-72
2021/12/30 08:05:30;;;;;;;0.40;0.40;;;21.20;52.90;;;;;;4991597;28;20299;-72
2021/12/30 08:07:57;;;;;;;0.40;0.40;;;21.30;52.90;;;;;;4975426;28;20674;-72
2021/12/30 08:10:23;;;;;;;0.50;0.50;;;21.20;52.90;;;;;;4991606;28;20225;-70
2021/12/30 08:12:50;;;;;;;0.50;0.50;;;21.20;52.90;;;;;;4990347;28;20170;-71
2021/12/30 08:15:17;;;;;;;0.60;0.60;;;21.20;52.90;;;;;;4991234;28;20189;-71
2021/12/30 08:17:46;;;;;;;0.30;0.30;;;21.20;52.90;;;;;;4976348;28;20220;-72
2021/12/30 08:20:15;;;;;;;0.30;0.30;;;21.20;53.00;;;;;;4975073;28;20202;-72
2021/12/30 08:22:41;;;;;;;0.30;0.30;;;21.30;53.00;;;;;;4975560;28;20186;-72
2021/12/30 08:25:10;;;;;;;0.40;0.40;;;21.20;53.00;;;;;;4976325;28;20186;-72
2021/12/30 08:27:36;;;;;;;0.43;0.43;;;21.20;53.00;;;;;;4985508;28;20233;-72
2021/12/30 08:30:08;;;;;;;0.60;0.60;;;21.20;53.00;;;;;;4975016;28;20206;-72
2021/12/30 08:32:34;;;;;;;0.40;0.40;;;21.20;53.00;;;;;;4975346;28;20268;-72
2021/12/30 08:34:59;;;;;;;0.35;0.35;;;21.20;53.00;;;;;;4982905;28;20273;-71
2021/12/30 08:37:25;;;;;;;0.30;0.30;;;21.20;53.00;;;;;;4967992;28;20261;-71
2021/12/30 08:39:51;;;;;;;0.50;0.50;;;21.30;53.10;;;;;;4958868;28;20213;-72
2021/12/30 08:42:27;;;;;;;0.40;0.40;;;21.30;53.10;;;;;;4975802;28;20194;-71
2021/12/30 08:44:55;;;;;;;0.47;0.47;;;21.20;53.00;;;;;;4960529;28;20197;-72
2021/12/30 08:47:22;;;;;;;0.52;0.52;;;21.30;53.10;;;;;;4975121;28;20194;-71
2021/12/30 08:49:48;;;;;;;0.80;0.70;;;21.30;53.10;;;;;;4975344;28;20212;-72
2021/12/30 08:52:18;;;;;;;0.60;0.60;;;21.30;53.10;;;;;;4975619;28;20213;-71
2021/12/30 08:54:47;;;;;;;1.50;0.70;;;21.20;53.00;;;;;;4975429;28;20202;-71
2021/12/30 08:57:14;;;;;;;0.57;0.57;;;21.20;53.10;;;;;;4967805;28;20280;-72
2021/12/30 08:59:40;;;;;;;0.50;0.50;;;21.20;53.10;;;;;;4976983;28;20194;-71
2021/12/30 09:02:07;;;;;;;0.50;0.50;;;21.20;53.10;;;;;;4976063;28;20200;-72
2021/12/30 09:04:34;;;;;;;0.50;0.50;;;21.20;53.20;;;;;;4960013;28;20208;-72
2021/12/30 09:07:02;;;;;;;0.40;0.40;;;21.20;53.20;;;;;;4977245;28;20197;-72
2021/12/30 09:09:28;;;;;;;0.50;0.50;;;21.20;53.10;;;;;;4960317;28;20199;-72
2021/12/30 09:11:56;;;;;;;0.50;0.50;;;21.30;53.20;;;;;;4977118;28;20225;-72
2021/12/30 09:14:22;;;;;;;0.40;0.40;;;21.30;53.30;;;;;;4974805;28;20193;-72
2021/12/30 09:16:49;;;;;;;0.50;0.50;;;21.30;53.20;;;;;;4975413;28;20676;-71
2021/12/30 09:19:16;;;;;;;0.50;0.50;;;21.30;53.20;;;;;;4975504;28;20265;-70
2021/12/30 09:21:42;;;;;;;0.30;0.30;;;21.30;53.20;;;;;;4990612;28;20288;-72
2021/12/30 09:24:10;;;;;;;0.43;0.43;;;21.30;53.30;;;;;;4975123;28;20198;-71
2021/12/30 09:26:37;;;;;;;0.35;0.35;;;21.30;53.30;;;;;;4949736;28;20193;-71
2021/12/30 09:29:10;;;;;;;0.80;0.60;;;21.30;53.30;;;;;;4974237;28;20190;-72
2021/12/30 09:31:47;;;;;;;0.50;0.50;;;21.30;53.80;;;;;;4990037;28;20210;-71
2021/12/30 09:34:14;;;;;;;0.52;0.52;;;21.30;53.30;;;;;;4990159;28;20269;-72
2021/12/30 09:36:41;;;;;;;0.50;0.50;;;21.30;53.30;;;;;;4989993;28;20186;-71
2021/12/30 09:39:11;;;;;;;0.55;0.55;;;21.30;53.40;;;;;;4975574;28;20209;-72
2021/12/30 09:41:44;;;;;;;0.80;0.50;;;21.30;53.30;;;;;;4973850;28;20212;-72
2021/12/30 09:44:16;;;;;;;0.47;0.47;;;21.30;53.40;;;;;;4973789;28;20193;-71
2021/12/30 09:46:43;;;;;;;0.70;0.70;;;21.30;53.40;;;;;;4989815;28;20184;-71
2021/12/30 09:49:17;;;;;;;0.60;0.60;;;21.30;53.40;;;;;;4989834;28;20200;-72
2021/12/30 09:51:44;;;;;;;0.57;0.55;;;21.30;53.40;;;;;;4973722;28;20245;-71
2021/12/30 09:54:10;;;;;;;0.50;0.50;;;21.30;53.50;;;;;;4985419;28;20198;-71
2021/12/30 09:56:37;;;;;;;0.57;0.57;;;21.30;53.50;;;;;;4981704;28;20236;-71
2021/12/30 09:59:03;;;;;;;0.47;0.47;;;21.30;53.40;;;;;;4973237;28;20280;-71
2021/12/30 10:01:29;;;;;;;0.70;0.70;;;21.30;53.50;;;;;;4973228;28;20309;-72
2021/12/30 10:04:02;;;;;;;0.50;0.50;;;21.30;53.50;;;;;;4975598;28;20190;-72
2021/12/30 10:06:30;;;;;;;0.57;0.50;;;21.30;53.50;;;;;;4958152;28;20220;-72
2021/12/30 10:09:01;;;;;;;0.57;0.57;;;21.30;53.60;;;;;;4958281;28;20282;-72
2021/12/30 10:11:28;;;;;;;0.60;0.43;;;21.30;53.50;;;;;;4975968;28;20228;-72
2021/12/30 10:13:59;;;;;;;0.60;0.60;;;21.30;53.50;;;;;;4974781;28;20185;-72
2021/12/30 10:16:26;;;;;;;0.50;0.50;;;21.30;53.50;;;;;;4958373;28;20189;-72
2021/12/30 10:19:02;;;;;;;0.40;0.40;;;21.30;53.50;;;;;;4975422;28;20643;-72
2021/12/30 10:21:36;;;;;;;0.50;0.50;;;21.30;53.50;;;;;;4959573;28;20209;-72
2021/12/30 10:24:07;;;;;;;0.70;0.60;;;21.30;53.60;;;;;;4957430;28;20700;-72
2021/12/30 10:26:55;;;;;;;0.50;0.50;;;21.30;53.60;;;;;;4975987;28;20178;-72
2021/12/30 10:29:21;;;;;;;0.65;0.50;;;21.30;53.60;;;;;;4974357;28;20189;-70
2021/12/30 10:31:48;;;;;;;0.65;0.60;;;21.30;53.60;;;;;;4972818;28;20304;-73
2021/12/30 10:34:16;;;;;;;0.40;0.40;;;21.30;53.60;;;;;;4979307;28;20178;-71
2021/12/30 10:36:50;;;;;;;0.68;0.63;;;21.30;53.70;;;;;;4951351;28;20182;-73
2021/12/30 10:39:28;;;;;;;0.55;0.55;;;21.30;53.60;;;;;;4972559;28;20193;-72
2021/12/30 10:42:22;;;;;;;1.38;0.40;;;21.30;53.60;;;;;;4973426;28;20186;-73
2021/12/30 10:45:03;;;;;;;0.55;0.52;;;21.30;53.70;;;;;;4956230;28;20190;-73
2021/12/30 10:47:34;;;;;;;0.60;0.60;;;21.30;53.60;;;;;;4979441;28;20200;-73
2021/12/30 10:50:10;;;;;;;0.68;0.50;;;21.30;53.60;;;;;;4972217;28;20233;-73
2021/12/30 10:52:53;;;;;;;0.60;0.60;;;21.30;53.70;;;;;;4973458;28;20212;-72
2021/12/30 10:55:20;;;;;;;0.50;0.50;;;21.30;53.70;;;;;;4975579;28;20224;-72
2021/12/30 10:57:46;;;;;;;0.40;0.40;;;21.30;53.60;;;;;;4983897;28;20189;-72
2021/12/30 11:00:34;;;;;;;0.45;0.43;;;21.30;53.70;;;;;;4988648;28;20292;-72
2021/12/30 11:03:24;;;;;;;0.50;0.50;;;21.30;53.70;;;;;;4988916;28;20177;-73
2021/12/30 11:06:14;;;;;;;0.60;0.60;;;21.30;53.70;;;;;;4972375;28;20209;-72
2021/12/30 11:08:41;;;;;;;0.90;0.50;;;21.30;53.80;;;;;;4972457;28;20190;-72
2021/12/30 11:11:27;;;;;;;0.45;0.45;;;21.30;53.80;;;;;;4955955;28;20225;-72
2021/12/30 11:14:21;;;;;;;0.60;0.60;;;21.30;53.70;;;;;;4972306;28;20196;-72
2021/12/30 11:17:30;;;;;;;0.77;0.50;;;21.30;53.70;;;;;;4972014;28;20182;-72
2021/12/30 11:20:04;;;;;;;1.88;0.70;;;21.30;53.80;;;;;;4972167;28;20256;-73
2021/12/30 11:22:32;;;;;;;0.95;0.47;;;21.30;53.80;;;;;;4988411;28;20232;-73
2021/12/30 11:25:03;;;;;;;0.50;0.50;;;21.30;53.90;;;;;;4983130;28;20185;-73
2021/12/30 11:27:31;;;;;;;0.95;0.60;;;21.30;53.80;;;;;;4973273;28;20220;-73
2021/12/30 11:30:11;;;;;;;1.38;0.68;;;21.30;53.80;;;;;;4971939;28;20298;-70
2021/12/30 11:32:38;;;;;;;0.70;0.50;;;21.30;53.80;;;;;;4973267;28;20185;-70
2021/12/30 11:35:07;;;;;;;0.63;0.50;;;21.30;53.80;;;;;;4940020;28;20274;-71
2021/12/30 11:37:35;;;;;;;0.50;0.50;;;21.30;53.90;;;;;;4945865;28;20201;-71
2021/12/30 11:40:09;;;;;;;0.50;0.47;;;21.30;53.90;;;;;;4958628;28;20202;-70
2021/12/30 11:42:42;;;;;;;2.38;0.68;;;21.30;53.90;;;;;;4979216;28;20197;-71
2021/12/30 11:45:39;;;;;;;0.55;0.50;;;21.30;53.90;;;;;;4986675;28;20190;-71
2021/12/30 11:48:29;;;;;;;4.35;0.65;;;21.30;53.90;;;;;;4980101;28;20566;-71
2021/12/30 11:51:10;;;;;;;1.27;0.50;;;21.30;54.00;;;;;;4983891;28;20594;-71
2021/12/30 11:53:38;;;;;;;1.00;0.68;;;21.30;53.90;;;;;;4976135;28;20244;-71
2021/12/30 11:56:10;;;;;;;1.08;0.60;;;21.30;53.90;;;;;;4982373;28;20569;-70
2021/12/30 11:58:45;;;;;;;1.88;0.90;;;21.30;54.00;;;;;;4975983;28;20185;-70
2021/12/30 12:01:11;;;;;;;1.10;0.50;;;21.30;53.90;;;;;;4977240;28;20609;-71
2021/12/30 12:04:03;;;;;;;0.95;0.60;;;21.30;53.90;;;;;;4983629;28;20201;-70
2021/12/30 12:06:39;;;;;;;0.50;0.50;;;21.30;54.00;;;;;;4991439;28;20178;-70
2021/12/30 12:09:22;;;;;;;1.05;0.60;;;21.30;54.00;;;;;;4991889;28;20232;-70
2021/12/30 12:12:11;;;;;;;0.52;0.50;;;21.30;54.00;;;;;;4975205;28;20217;-71
2021/12/30 12:14:56;;;;;;;0.93;0.60;;;21.30;54.00;;;;;;4964604;28;20221;-70
2021/12/30 12:17:40;;;;;;;0.85;0.70;;;21.30;54.00;;;;;;4955809;28;20174;-70
2021/12/30 12:20:14;;;;;;;1.73;0.82;;;21.30;54.00;;;;;;4939572;29;20210;-71
2021/12/30 12:22:40;;;;;;;0.85;0.50;;;21.30;54.00;;;;;;4939579;29;20329;-70
2021/12/30 12:25:26;;;;;;;1.33;0.60;;;21.30;54.00;;;;;;4939415;29;20257;-71
2021/12/30 12:27:55;;;;;;;0.50;0.50;;;21.30;54.00;;;;;;4939642;29;20709;-70
2021/12/30 12:30:38;;;;;;;1.85;0.60;;;21.30;54.10;;;;;;4942215;28;20210;-70
2021/12/30 12:33:32;;;;;;;2.35;0.60;;;21.30;54.10;;;;;;4968832;28;20261;-71
2021/12/30 12:36:00;;;;;;;0.50;0.50;;;21.30;54.00;;;;;;4967935;28;20204;-70
2021/12/30 12:38:50;;;;;;;1.13;0.60;;;21.30;54.10;;;;;;4987034;28;20653;-70
2021/12/30 12:41:31;;;;;;;0.60;0.55;;;21.30;54.10;;;;;;4973912;28;20264;-70
2021/12/30 12:44:02;;;;;;;0.65;0.63;;;21.30;54.10;;;;;;4974676;28;20194;-71
2021/12/30 12:46:47;;;;;;;1.50;0.65;;;21.30;54.10;;;;;;4974477;28;20185;-70
2021/12/30 12:49:15;;;;;;;0.82;0.73;;;21.30;54.20;;;;;;4952423;28;20200;-70
2021/12/30 12:51:55;;;;;;;0.80;0.50;;;21.30;54.20;;;;;;4953076;28;20695;-69
2021/12/30 12:54:46;;;;;;;1.15;0.73;;;21.30;54.20;;;;;;4990636;28;20236;-69
2021/12/30 12:57:18;;;;;;;2.03;0.80;;;21.30;54.70;;;;;;4974544;28;20184;-70
2021/12/30 12:59:46;;;;;;;1.85;0.90;;;21.40;55.00;;;;;;4973397;28;20276;-70
2021/12/30 13:02:15;;;;;;;3.15;1.00;;;21.30;54.60;;;;;;4990551;28;20189;-72